Time;durP1;ratioP1;P1;durP2;ratioP2;P2;SDS_P1;SDS_P2;PMS_P1;PMS_P2;Temp;Humidity;BMP_temperature;BMP_pressure;BME280_temperature;BME280_humidity;BME280_pressure;Samples;Min_cycle;Max_cycle;Signal;HPM_P1;HPM_P2
2022/10/28 00:00:05;;;;;;;;;;;;;;;-143.57;100.00;50929.28;4960173;28;20500;-69
2022/10/28 00:02:31;;;;;;;;;;;;;;;-143.57;100.00;50961.06;4961622;28;19930;-69
2022/10/28 00:04:58;;;;;;;;;;;;;;;-143.57;100.00;50973.00;4963751;28;19934;-69
2022/10/28 00:07:26;;;;;;;;;;;;;;;-143.57;100.00;50937.22;4963330;28;19938;-69
2022/10/28 00:09:53;;;;;;;;;;;;;;;-143.57;100.00;50921.31;4963921;28;19970;-69
2022/10/28 00:12:19;;;;;;;;;;;;;;;-143.57;100.00;50945.19;4966922;28;19993;-68
2022/10/28 00:14:46;;;;;;;;;;;;;;;-143.57;100.00;50923.31;4965343;28;20021;-68
2022/10/28 00:17:12;;;;;;;;;;;;;;;-143.57;100.00;50965.06;4965176;28;19930;-67
2022/10/28 00:19:39;;;;;;;;;;;;;;;-143.57;100.00;50917.34;4967764;28;19961;-68
2022/10/28 00:22:06;;;;;;;;;;;;;;;-143.57;100.00;50933.25;4964085;28;21181;-68
2022/10/28 00:24:32;;;;;;;;;;;;;;;-143.57;100.00;50971.03;4964093;28;20073;-68
2022/10/28 00:26:59;;;;;;;;;;;;;;;-143.57;100.00;50933.25;4966507;28;20364;-68
2022/10/28 00:29:26;;;;;;;;;;;;;;;-143.57;100.00;50929.28;4965151;28;20445;-68
2022/10/28 00:31:53;;;;;;;;;;;;;;;-143.57;100.00;50955.13;4964387;28;19940;-68
2022/10/28 00:34:22;;;;;;;;;;;;;;;-143.57;100.00;50929.28;4964604;28;20377;-68
2022/10/28 00:36:49;;;;;;;;;;;;;;;-143.57;100.00;50913.38;4963195;28;19926;-68
2022/10/28 00:39:17;;;;;;;;;;;;;;;-143.57;100.00;50961.06;4968838;28;20430;-69
2022/10/28 00:41:46;;;;;;;;;;;;;;;-143.57;100.00;50945.19;4964939;28;20020;-68
2022/10/28 00:44:31;;;;;;;;;;;;;;;-143.57;100.00;50913.38;4967211;28;19958;-68
2022/10/28 00:46:58;;;;;;;;;;;;;;;-143.57;100.00;50937.22;4948309;28;19926;-69
2022/10/28 00:49:31;;;;;;;;;;;;;;;-143.57;100.00;50959.09;4963086;28;19977;-68
2022/10/28 00:52:00;;;;;;;;;;;;;;;-143.57;100.00;50933.25;4965610;28;19934;-68
2022/10/28 00:54:28;;;;;;;;;;;;;;;-143.57;100.00;50953.13;4960926;28;20604;-68
2022/10/28 00:56:57;;;;;;;;;;;;;;;-143.57;100.00;50965.06;4967964;28;19989;-68
2022/10/28 00:59:26;;;;;;;;;;;;;;;-143.57;100.00;50965.06;4964410;28;19944;-68
2022/10/28 01:01:53;;;;;;;;;;;;;;;-143.57;100.00;50925.31;4962197;28;19941;-68
2022/10/28 01:04:20;;;;;;;;;;;;;;;-143.57;100.00;50941.19;4972641;28;20020;-68
2022/10/28 01:06:47;;;;;;;;;;;;;;;-143.57;100.00;50937.22;4962607;28;20020;-68
2022/10/28 01:09:14;;;;;;;;;;;;;;;-143.57;100.00;50945.19;4968369;28;20014;-68
2022/10/28 01:12:04;;;;;;;;;;;;;;;-143.57;100.00;50933.25;4967942;28;19926;-68
2022/10/28 01:14:37;;;;;;;;;;;;;;;-143.57;100.00;50953.13;4966214;28;19926;-68
2022/10/28 01:17:22;;;;;;;;;;;;;;;-143.57;100.00;50953.13;4965114;28;19959;-68
2022/10/28 01:20:07;;;;;;;;;;;;;;;-143.57;100.00;50975.00;4964354;28;19984;-68
2022/10/28 01:22:46;;;;;;;;;;;;;;;-143.57;100.00;50969.03;4963293;28;20655;-68
2022/10/28 01:25:18;;;;;;;;;;;;;;;-143.57;100.00;50935.25;4946844;28;20741;-69
2022/10/28 01:28:00;;;;;;;;;;;;;;;-143.57;100.00;50957.09;4963241;28;20021;-69
2022/10/28 01:30:31;;;;;;;;;;;;;;;-143.57;100.00;50935.25;4963275;28;19933;-68
2022/10/28 01:33:03;;;;;;;;;;;;;;;-143.57;100.00;50961.06;4966933;28;19993;-68
2022/10/28 01:35:43;;;;;;;;;;;;;;;-143.57;100.00;50963.06;4964220;28;20021;-68
2022/10/28 01:38:13;;;;;;;;;;;;;;;-143.57;100.00;50929.28;4965075;28;19938;-68
2022/10/28 01:40:42;;;;;;;;;;;;;;;-143.57;100.00;50933.25;4965004;28;19930;-68
2022/10/28 01:43:15;;;;;;;;;;;;;;;-143.57;100.00;50961.06;4965762;28;20625;-68
2022/10/28 01:45:41;;;;;;;;;;;;;;;-143.57;100.00;50931.25;4968017;28;19933;-69
2022/10/28 01:48:23;;;;;;;;;;;;;;;-143.57;100.00;50933.25;4965070;28;19941;-68
2022/10/28 01:50:56;;;;;;;;;;;;;;;-143.57;100.00;50921.31;4961719;28;20495;-68
2022/10/28 01:53:29;;;;;;;;;;;;;;;-143.57;100.00;50917.34;4966195;28;20541;-69
2022/10/28 01:55:59;;;;;;;;;;;;;;;-143.57;100.00;50937.22;4963671;28;20301;-68
2022/10/28 01:58:27;;;;;;;;;;;;;;;-143.57;100.00;50957.09;4965744;28;19937;-68
2022/10/28 02:00:54;;;;;;;;;;;;;;;-143.57;100.00;50917.34;4962956;28;19970;-67
2022/10/28 02:03:26;;;;;;;;;;;;;;;-143.57;100.00;50969.03;4966274;28;20028;-67
2022/10/28 02:05:54;;;;;;;;;;;;;;;-143.57;100.00;50953.13;4963878;28;19934;-68
2022/10/28 02:08:24;;;;;;;;;;;;;;;-143.57;100.00;50961.06;4965920;28;19930;-68
2022/10/28 02:10:50;;;;;;;;;;;;;;;-143.57;100.00;50939.22;4965617;28;19930;-69
2022/10/28 02:13:18;;;;;;;;;;;;;;;-143.57;100.00;50941.19;4968560;28;19937;-68
2022/10/28 02:15:54;;;;;;;;;;;;;;;-143.57;100.00;50996.84;4971520;28;20017;-68
2022/10/28 02:18:20;;;;;;;;;;;;;;;-143.57;100.00;50947.16;4966242;28;19934;-68
2022/10/28 02:20:52;;;;;;;;;;;;;;;-143.57;100.00;50965.06;4964979;28;19938;-68
2022/10/28 02:23:19;;;;;;;;;;;;;;;-143.57;100.00;51004.81;4965170;28;20008;-68
2022/10/28 02:25:51;;;;;;;;;;;;;;;-143.57;100.00;50965.06;4967489;28;20022;-67
2022/10/28 02:28:23;;;;;;;;;;;;;;;-143.57;100.00;50949.16;4967838;28;20017;-68
2022/10/28 02:30:56;;;;;;;;;;;;;;;-143.57;100.00;50953.13;4967980;28;19985;-68
2022/10/28 02:33:25;;;;;;;;;;;;;;;-143.57;100.00;50976.97;4969279;28;20320;-68
2022/10/28 02:35:59;;;;;;;;;;;;;;;-143.57;100.00;50941.19;4968526;28;19949;-68
2022/10/28 02:38:31;;;;;;;;;;;;;;;-143.57;100.00;50945.19;4969746;28;20281;-68
2022/10/28 02:41:01;;;;;;;;;;;;;;;-143.57;100.00;50965.06;4972799;28;19932;-69
2022/10/28 02:43:29;;;;;;;;;;;;;;;-143.57;100.00;50961.06;4969294;28;19926;-68
2022/10/28 02:45:58;;;;;;;;;;;;;;;-143.57;100.00;50965.06;4971341;28;19925;-68
2022/10/28 02:48:25;;;;;;;;;;;;;;;-143.57;100.00;50937.22;4969491;28;20008;-68
2022/10/28 02:50:59;;;;;;;;;;;;;;;-143.57;100.00;50963.06;4970575;28;19934;-68
2022/10/28 02:53:30;;;;;;;;;;;;;;;-143.57;100.00;50973.00;4969948;28;20583;-68
2022/10/28 02:55:59;;;;;;;;;;;;;;;-143.57;100.00;50965.06;4964976;28;20380;-68
2022/10/28 02:58:26;;;;;;;;;;;;;;;-143.57;100.00;50929.28;4967437;28;19934;-68
2022/10/28 03:00:52;;;;;;;;;;;;;;;-143.57;100.00;50937.22;4968264;28;19945;-68
2022/10/28 03:03:19;;;;;;;;;;;;;;;-143.57;100.00;50976.97;4961132;28;19930;-69
2022/10/28 03:05:46;;;;;;;;;;;;;;;-143.57;100.00;50945.19;4962511;28;20070;-68
2022/10/28 03:08:12;;;;;;;;;;;;;;;-143.57;100.00;50917.34;4966690;28;20399;-69
2022/10/28 03:10:39;;;;;;;;;;;;;;;-143.57;100.00;50935.25;4966242;28;20753;-67
2022/10/28 03:13:05;;;;;;;;;;;;;;;-143.57;100.00;50909.41;4962287;28;19957;-68
2022/10/28 03:15:32;;;;;;;;;;;;;;;-143.57;100.00;50937.22;4967001;28;20036;-69
2022/10/28 03:17:58;;;;;;;;;;;;;;;-143.57;100.00;50961.06;4965698;28;19930;-68
2022/10/28 03:20:25;;;;;;;;;;;;;;;-143.57;100.00;50933.25;4962764;28;19926;-68
2022/10/28 03:22:52;;;;;;;;;;;;;;;-143.57;100.00;50945.19;4962330;28;20588;-68
2022/10/28 03:25:18;;;;;;;;;;;;;;;-143.57;100.00;50945.19;4952336;28;19930;-68
2022/10/28 03:27:45;;;;;;;;;;;;;;;-143.57;100.00;50965.06;4966188;28;19933;-69
2022/10/28 03:30:13;;;;;;;;;;;;;;;-143.57;100.00;50971.03;4964628;28;20411;-68
2022/10/28 03:32:40;;;;;;;;;;;;;;;-143.57;100.00;50957.09;4962878;28;19930;-68
2022/10/28 03:35:07;;;;;;;;;;;;;;;-143.57;100.00;50965.06;4965843;28;19937;-69
2022/10/28 03:37:33;;;;;;;;;;;;;;;-143.57;100.00;50953.13;4970197;28;20040;-68
2022/10/28 03:40:01;;;;;;;;;;;;;;;-143.57;100.00;50949.16;4969753;28;20040;-68
2022/10/28 03:42:28;;;;;;;;;;;;;;;-143.57;100.00;50988.91;4969232;28;19984;-68
2022/10/28 03:44:54;;;;;;;;;;;;;;;-143.57;100.00;50957.09;4975905;28;19926;-68
2022/10/28 03:47:21;;;;;;;;;;;;;;;-143.57;100.00;50953.13;4970373;28;19930;-68
2022/10/28 03:49:48;;;;;;;;;;;;;;;-143.57;100.00;50980.97;4971541;28;19934;-67
2022/10/28 03:52:14;;;;;;;;;;;;;;;-143.57;100.00;50961.06;4967310;28;20366;-68
2022/10/28 03:54:41;;;;;;;;;;;;;;;-143.57;100.00;50961.06;4966389;28;19988;-67
2022/10/28 03:57:08;;;;;;;;;;;;;;;-143.57;100.00;50961.06;4974276;28;19934;-67
2022/10/28 03:59:34;;;;;;;;;;;;;;;-143.57;100.00;50959.09;4969833;28;19929;-68
2022/10/28 04:02:01;;;;;;;;;;;;;;;-143.57;100.00;50949.16;4970341;28;19933;-68
2022/10/28 04:04:27;;;;;;;;;;;;;;;-143.57;100.00;50933.25;4969942;28;19957;-68
2022/10/28 04:06:56;;;;;;;;;;;;;;;-143.57;100.00;50988.91;4968321;28;19988;-68
2022/10/28 04:09:23;;;;;;;;;;;;;;;-143.57;100.00;50945.19;4967315;28;20327;-68
2022/10/28 04:11:49;;;;;;;;;;;;;;;-143.57;100.00;50961.06;4968960;28;19933;-68
2022/10/28 04:14:16;;;;;;;;;;;;;;;-143.57;100.00;50975.00;4952091;28;20028;-69
2022/10/28 04:16:42;;;;;;;;;;;;;;;-143.57;100.00;50953.13;4973592;28;19988;-68
2022/10/28 04:19:09;;;;;;;;;;;;;;;-143.57;100.00;50949.16;4969435;28;20571;-69
2022/10/28 04:21:36;;;;;;;;;;;;;;;-143.57;100.00;50988.91;4969105;28;19926;-68
2022/10/28 04:24:02;;;;;;;;;;;;;;;-143.57;100.00;50953.13;4963106;28;20297;-70
2022/10/28 04:26:30;;;;;;;;;;;;;;;-143.57;100.00;50967.03;4961603;28;20585;-68
2022/10/28 04:28:57;;;;;;;;;;;;;;;-143.57;100.00;50933.25;4964518;28;19930;-69
2022/10/28 04:31:24;;;;;;;;;;;;;;;-143.57;100.00;50988.91;4960946;28;20415;-69
2022/10/28 04:33:50;;;;;;;;;;;;;;;-143.57;100.00;50929.28;4960723;28;19933;-69
2022/10/28 04:36:18;;;;;;;;;;;;;;;-143.57;100.00;50957.09;4960929;28;20024;-68
2022/10/28 04:38:44;;;;;;;;;;;;;;;-143.57;100.00;50955.13;4964219;28;19930;-69
2022/10/28 04:41:12;;;;;;;;;;;;;;;-143.57;100.00;50947.16;4961038;28;19984;-69
2022/10/28 04:43:38;;;;;;;;;;;;;;;-143.57;100.00;50969.03;4968175;28;19930;-70
2022/10/28 04:46:05;;;;;;;;;;;;;;;-143.57;100.00;50951.13;4964286;28;19936;-69
2022/10/28 04:48:32;;;;;;;;;;;;;;;-143.57;100.00;50984.94;4966603;28;19989;-69
2022/10/28 04:50:59;;;;;;;;;;;;;;;-143.57;100.00;50955.13;4963609;28;20279;-70
2022/10/28 04:53:26;;;;;;;;;;;;;;;-143.57;100.00;50963.06;4967099;28;20331;-71
2022/10/28 04:55:55;;;;;;;;;;;;;;;-143.57;100.00;50971.03;4963808;28;19929;-69
2022/10/28 04:58:22;;;;;;;;;;;;;;;-143.57;100.00;50957.09;4969693;28;19973;-71
2022/10/28 05:00:49;;;;;;;;;;;;;;;-143.57;100.00;50945.19;4971755;28;20012;-69
2022/10/28 05:03:15;;;;;;;;;;;;;;;-143.57;100.00;50957.09;4967056;28;20008;-68
2022/10/28 05:05:42;;;;;;;;;;;;;;;-143.57;100.00;50978.97;4970869;28;19930;-69
2022/10/28 05:08:09;;;;;;;;;;;;;;;-143.57;100.00;50947.16;4967838;28;20556;-70
2022/10/28 05:10:35;;;;;;;;;;;;;;;-143.57;100.00;50965.06;4971051;28;20003;-69
2022/10/28 05:13:02;;;;;;;;;;;;;;;-143.57;100.00;50935.25;4969387;28;20021;-70
2022/10/28 05:15:30;;;;;;;;;;;;;;;-143.57;100.00;50965.06;4972912;28;19938;-70
2022/10/28 05:17:56;;;;;;;;;;;;;;;-143.57;100.00;50943.19;4970056;28;20014;-70
2022/10/28 05:20:23;;;;;;;;;;;;;;;-143.57;100.00;50980.97;4970218;28;19990;-70
2022/10/28 05:22:52;;;;;;;;;;;;;;;-143.57;100.00;51000.84;4965561;28;19977;-70
2022/10/28 05:25:19;;;;;;;;;;;;;;;-143.57;100.00;50957.09;4969825;28;19941;-70
2022/10/28 05:27:46;;;;;;;;;;;;;;;-143.57;100.00;50976.97;4969210;28;20498;-69
2022/10/28 05:30:13;;;;;;;;;;;;;;;-143.57;100.00;50961.06;4970985;28;20016;-70
2022/10/28 05:32:40;;;;;;;;;;;;;;;-143.57;100.00;50969.03;4954807;28;19930;-69
2022/10/28 05:35:07;;;;;;;;;;;;;;;-143.57;100.00;50988.91;4977346;28;19934;-69
2022/10/28 05:37:33;;;;;;;;;;;;;;;-143.57;100.00;50961.06;4973889;28;19961;-69
2022/10/28 05:40:00;;;;;;;;;;;;;;;-143.57;100.00;50971.03;4972413;28;19952;-69
2022/10/28 05:42:27;;;;;;;;;;;;;;;-143.57;100.00;50957.09;4974469;28;20278;-69
2022/10/28 05:44:53;;;;;;;;;;;;;;;-143.57;100.00;50957.09;4970527;28;19929;-68
2022/10/28 05:47:20;;;;;;;;;;;;;;;-143.57;100.00;50923.31;4973405;28;19934;-70
2022/10/28 05:49:47;;;;;;;;;;;;;;;-143.57;100.00;50969.03;4968440;28;19933;-70
2022/10/28 05:52:13;;;;;;;;;;;;;;;-143.57;100.00;50976.97;4972993;28;20411;-71
2022/10/28 05:54:40;;;;;;;;;;;;;;;-143.57;100.00;50984.94;4968923;28;20034;-71
2022/10/28 05:57:06;;;;;;;;;;;;;;;-143.57;100.00;50963.06;4969349;28;20454;-69
2022/10/28 05:59:33;;;;;;;;;;;;;;;-143.57;100.00;50986.91;4970268;28;20463;-69
2022/10/28 06:02:00;;;;;;;;;;;;;;;-143.57;100.00;50973.00;4971526;28;19938;-69
2022/10/28 06:04:29;;;;;;;;;;;;;;;-143.57;100.00;50965.06;4972319;28;19929;-69
2022/10/28 06:06:56;;;;;;;;;;;;;;;-143.57;100.00;50969.03;4971065;28;19930;-69
2022/10/28 06:09:25;;;;;;;;;;;;;;;-143.57;100.00;51012.75;4970977;28;20612;-71
2022/10/28 06:11:52;;;;;;;;;;;;;;;-143.57;100.00;50976.97;4970428;28;20017;-69
2022/10/28 06:14:19;;;;;;;;;;;;;;;-143.57;100.00;50967.03;4976690;28;19974;-69
2022/10/28 06:16:45;;;;;;;;;;;;;;;-143.57;100.00;50965.06;4968390;28;20410;-69
2022/10/28 06:19:12;;;;;;;;;;;;;;;-143.57;100.00;50988.91;4972202;28;20395;-69
2022/10/28 06:21:38;;;;;;;;;;;;;;;-143.57;100.00;50988.91;4968763;28;19992;-69
2022/10/28 06:24:05;;;;;;;;;;;;;;;-143.57;100.00;50996.84;4970600;28;19969;-69
2022/10/28 06:26:36;;;;;;;;;;;;;;;-143.57;100.00;50973.00;4967957;28;19926;-70
2022/10/28 06:29:03;;;;;;;;;;;;;;;-143.57;100.00;50957.09;4970258;28;19996;-70
2022/10/28 06:31:29;;;;;;;;;;;;;;;-143.57;100.00;50959.09;4971347;28;20045;-69
2022/10/28 06:33:56;;;;;;;;;;;;;;;-143.57;100.00;51010.78;4971513;28;19929;-69
2022/10/28 06:36:23;;;;;;;;;;;;;;;-143.57;100.00;50980.97;4971787;28;20308;-69
2022/10/28 06:38:51;;;;;;;;;;;;;;;-143.57;100.00;50953.13;4968718;28;20403;-69
2022/10/28 06:41:18;;;;;;;;;;;;;;;-143.57;100.00;50965.06;4972887;28;21206;-70
2022/10/28 06:43:44;;;;;;;;;;;;;;;-143.57;100.00;50941.19;4969854;28;20043;-69
2022/10/28 06:46:11;;;;;;;;;;;;;;;-143.57;100.00;50996.84;4970303;28;19977;-71
2022/10/28 06:48:37;;;;;;;;;;;;;;;-143.57;100.00;51004.81;4969378;28;20041;-71
2022/10/28 06:51:04;;;;;;;;;;;;;;;-143.57;100.00;51000.84;4964846;28;20462;-70
2022/10/28 06:53:31;;;;;;;;;;;;;;;-143.57;100.00;50984.94;4964005;28;19922;-70
2022/10/28 06:55:57;;;;;;;;;;;;;;;-143.57;100.00;50984.94;4962536;28;20699;-68
2022/10/28 06:58:24;;;;;;;;;;;;;;;-143.57;100.00;50992.88;4966335;28;19949;-69
2022/10/28 07:00:52;;;;;;;;;;;;;;;-143.57;100.00;50973.00;4965645;28;19969;-68
2022/10/28 07:03:19;;;;;;;;;;;;;;;-143.57;100.00;50998.84;4968831;28;19929;-69
2022/10/28 07:05:46;;;;;;;;;;;;;;;-143.57;100.00;50949.16;4957580;28;20004;-70
2022/10/28 07:08:13;;;;;;;;;;;;;;;-143.57;100.00;51004.81;4969201;28;20041;-69
2022/10/28 07:10:40;;;;;;;;;;;;;;;-143.57;100.00;50961.06;4968474;28;19960;-69
2022/10/28 07:13:07;;;;;;;;;;;;;;;-143.57;100.00;50988.91;4967412;28;19930;-69
2022/10/28 07:15:33;;;;;;;;;;;;;;;-143.57;100.00;51008.78;4970225;28;19973;-69
2022/10/28 07:18:01;;;;;;;;;;;;;;;-143.57;100.00;51008.78;4966302;28;19937;-69
2022/10/28 07:20:30;;;;;;;;;;;;;;;-143.57;100.00;50965.06;4967612;28;19937;-69
2022/10/28 07:22:58;;;;;;;;;;;;;;;-143.57;100.00;50980.97;4962332;28;20028;-69
2022/10/28 07:25:26;;;;;;;;;;;;;;;-143.57;100.00;50973.00;4961775;28;20066;-69
2022/10/28 07:27:53;;;;;;;;;;;;;;;-143.57;100.00;51012.75;4964580;28;19930;-68
2022/10/28 07:30:20;;;;;;;;;;;;;;;-143.57;100.00;50992.88;4962351;28;20219;-69
2022/10/28 07:32:46;;;;;;;;;;;;;;;-143.57;100.00;51010.78;4969180;28;19930;-70
2022/10/28 07:35:13;;;;;;;;;;;;;;;-143.57;100.00;50992.88;4950210;28;19981;-70
2022/10/28 07:37:40;;;;;;;;;;;;;;;-143.57;100.00;50984.94;4946036;28;19925;-70
2022/10/28 07:40:07;;;;;;;;;;;;;;;-143.57;100.00;50973.00;4964219;28;19937;-69
2022/10/28 07:42:34;;;;;;;;;;;;;;;-143.57;100.00;50959.09;4959803;28;19934;-68
2022/10/28 07:45:01;;;;;;;;;;;;;;;-143.57;100.00;50994.88;4961896;28;19944;-67
2022/10/28 07:47:27;;;;;;;;;;;;;;;-143.57;100.00;50957.09;4959498;28;19930;-68
2022/10/28 07:49:54;;;;;;;;;;;;;;;-143.57;100.00;50988.91;4963608;28;19969;-68
2022/10/28 07:52:21;;;;;;;;;;;;;;;-143.57;100.00;50967.03;4959683;28;19934;-68
2022/10/28 07:54:49;;;;;;;;;;;;;;;-143.57;100.00;51012.75;4960209;28;19937;-69
2022/10/28 07:57:15;;;;;;;;;;;;;;;-143.57;100.00;50992.88;4941970;28;19941;-70
2022/10/28 07:59:42;;;;;;;;;;;;;;;-143.57;100.00;50982.94;4960824;28;20408;-68
2022/10/28 08:02:14;;;;;;;;;;;;;;;-143.57;100.00;50984.94;4961850;28;19926;-68
2022/10/28 08:04:41;;;;;;;;;;;;;;;-143.57;100.00;50988.91;4960095;28;20000;-68
2022/10/28 08:07:07;;;;;;;;;;;;;;;-143.57;100.00;50984.94;4962702;28;20743;-68
2022/10/28 08:09:34;;;;;;;;;;;;;;;-143.57;100.00;50988.91;4960354;28;19926;-68
2022/10/28 08:12:01;;;;;;;;;;;;;;;-143.57;100.00;50992.88;4962331;28;20037;-70
2022/10/28 08:14:28;;;;;;;;;;;;;;;-143.57;100.00;50965.06;4959970;28;19976;-68
2022/10/28 08:16:54;;;;;;;;;;;;;;;-143.57;100.00;50998.84;4968204;28;19946;-69
2022/10/28 08:19:21;;;;;;;;;;;;;;;-143.57;100.00;50978.97;4962287;28;20715;-68
2022/10/28 08:21:47;;;;;;;;;;;;;;;-143.57;100.00;50973.00;4963106;28;19930;-68
2022/10/28 08:24:14;;;;;;;;;;;;;;;-143.57;100.00;51012.75;4961122;28;20016;-68
2022/10/28 08:26:41;;;;;;;;;;;;;;;-143.57;100.00;51000.84;4960610;28;19962;-68
2022/10/28 08:29:11;;;;;;;;;;;;;;;-143.57;100.00;50957.09;4944286;28;20012;-68
2022/10/28 08:31:38;;;;;;;;;;;;;;;-143.57;100.00;51008.78;4970549;28;20406;-68
2022/10/28 08:34:05;;;;;;;;;;;;;;;-143.57;100.00;50953.13;4972476;28;20009;-68
2022/10/28 08:36:32;;;;;;;;;;;;;;;-143.57;100.00;50992.88;4969454;28;19930;-68
2022/10/28 08:39:00;;;;;;;;;;;;;;;-143.57;100.00;50976.97;4968203;28;20335;-68
2022/10/28 08:41:34;;;;;;;;;;;;;;;-143.57;100.00;50976.97;4964401;28;20506;-68
2022/10/28 08:44:16;;;;;;;;;;;;;;;-143.57;100.00;50961.06;4967997;28;19976;-68
2022/10/28 08:46:43;;;;;;;;;;;;;;;-143.57;100.00;50945.19;4963036;28;19934;-68
2022/10/28 08:49:12;;;;;;;;;;;;;;;-143.57;100.00;50980.97;4967386;28;19981;-68
2022/10/28 08:51:39;;;;;;;;;;;;;;;-143.57;100.00;50976.97;4964503;28;19926;-68
2022/10/28 08:54:11;;;;;;;;;;;;;;;-143.57;100.00;50984.94;4966466;28;19966;-68
2022/10/28 08:56:44;;;;;;;;;;;;;;;-143.57;100.00;51032.63;4962104;28;19964;-68
2022/10/28 08:59:20;;;;;;;;;;;;;;;-143.57;97.69;50992.88;4966402;28;19937;-68
2022/10/28 09:01:47;;;;;;;;;;;;;;;-143.57;97.44;50992.88;4964167;28;20041;-67
2022/10/28 09:04:29;;;;;;;;;;;;;;;-143.57;96.53;50980.97;4966604;28;20440;-68
2022/10/28 09:06:55;;;;;;;;;;;;;;;-143.57;95.16;50996.84;4962628;28;20443;-68
2022/10/28 09:09:22;;;;;;;;;;;;;;;-143.57;96.28;50998.84;4968481;28;19934;-68
2022/10/28 09:11:52;;;;;;;;;;;;;;;-143.57;94.48;51008.78;4973653;28;20033;-68
2022/10/28 09:14:24;;;;;;;;;;;;;;;-143.57;64.81;50992.88;4969322;28;20406;-69
2022/10/28 09:16:54;;;;;;;;;;;;;;;-143.57;64.47;51012.75;4966129;28;20021;-68
2022/10/28 09:19:20;;;;;;;;;;;;;;;-143.57;64.33;51012.75;4968895;28;19936;-67
2022/10/28 09:21:49;;;;;;;;;;;;;;;-143.57;63.91;50980.97;4975285;28;19988;-68
2022/10/28 09:24:18;;;;;;;;;;;;;;;-143.57;62.49;51000.84;4974154;28;19941;-66
2022/10/28 09:26:45;;;;;;;;;;;;;;;-143.57;61.24;50976.97;4974643;28;19992;-67
2022/10/28 09:29:25;;;;;;;;;;;;;;;-143.57;61.33;50963.06;4976247;28;19937;-67
2022/10/28 09:31:55;;;;;;;;;;;;;;;-143.57;60.81;51002.81;4979011;28;19926;-67
2022/10/28 09:34:31;;;;;;;;;;;;;;;-143.57;60.45;51008.78;4975537;28;19984;-67
2022/10/28 09:37:18;;;;;;;;;;;;;;;-143.57;60.76;50998.84;4977915;28;19930;-67
2022/10/28 09:40:08;;;;;;;;;;;;;;;-143.57;60.49;51000.84;4968185;28;19937;-68
2022/10/28 09:42:38;;;;;;;;;;;;;;;-143.57;59.28;50961.06;4963606;28;19929;-67
2022/10/28 09:45:30;;;;;;;;;;;;;;;-143.57;59.48;50992.88;4970776;28;20017;-67
2022/10/28 09:48:09;;;;;;;;;;;;;;;-143.57;59.34;51016.72;4972563;28;19969;-67
2022/10/28 09:50:36;;;;;;;;;;;;;;;-143.57;58.58;51010.78;4966591;28;20021;-67
2022/10/28 09:53:09;;;;;;;;;;;;;;;-143.57;58.68;50963.06;4971278;28;20028;-67
2022/10/28 09:55:35;;;;;;;;;;;;;;;-143.57;55.09;50961.06;4967099;28;20408;-67
2022/10/28 09:58:03;;;;;;;;;;;;;;;-143.57;55.23;51018.72;4971438;28;19929;-69
2022/10/28 10:00:30;;;;;;;;;;;;;;;-143.57;54.80;51010.78;4963730;28;19930;-68
2022/10/28 10:02:57;;;;;;;;;;;;;;;-143.57;55.14;50988.91;4952775;28;20040;-67
2022/10/28 10:05:24;;;;;;;;;;;;;;;-143.57;54.30;51012.75;4962979;28;20426;-67
2022/10/28 10:07:53;;;;;;;;;;;;;;;-143.57;52.80;50965.06;4964549;28;19938;-67
2022/10/28 10:10:22;;;;;;;;;;;;;;;-143.57;51.54;50998.84;4963562;28;19977;-67
2022/10/28 10:12:49;;;;;;;;;;;;;;;-143.57;50.02;50988.91;4962979;28;19969;-67
2022/10/28 10:15:32;;;;;;;;;;;;;;;-143.57;49.90;51002.81;4962518;28;20604;-68
2022/10/28 10:18:00;;;;;;;;;;;;;;;-143.57;50.13;50992.88;4966965;28;19991;-68
2022/10/28 10:20:27;;;;;;;;;;;;;;;-143.57;49.67;51012.75;4967001;28;19977;-68
2022/10/28 10:22:54;;;;;;;;;;;;;;;-143.57;48.47;50984.94;4971057;28;19929;-68
2022/10/28 10:25:23;;;;;;;;;;;;;;;-143.57;47.71;50969.03;4971246;28;19933;-68
2022/10/28 10:28:00;;;;;;;;;;;;;;;-143.57;48.02;50992.88;4972326;28;20413;-67
2022/10/28 10:30:32;;;;;;;;;;;;;;;-143.57;46.25;51000.84;4971272;28;20568;-67
2022/10/28 10:33:00;;;;;;;;;;;;;;;-143.57;45.29;50992.88;4970255;28;20377;-68
2022/10/28 10:35:28;;;;;;;;;;;;;;;-143.57;45.29;50984.94;4957524;28;19930;-68
2022/10/28 10:37:56;;;;;;;;;;;;;;;-143.57;43.78;51014.75;4970631;28;20024;-68
2022/10/28 10:40:25;;;;;;;;;;;;;;;-143.57;42.10;51000.84;4973397;28;19934;-67
2022/10/28 10:42:52;;;;;;;;;;;;;;;-143.57;41.77;50992.88;4970250;28;20023;-67
2022/10/28 10:45:38;;;;;;;;;;;;;;;-143.57;41.75;50976.97;4973952;28;20024;-67
2022/10/28 10:48:11;;;;;;;;;;;;;;;-143.57;41.68;50988.91;4970697;28;19926;-68
2022/10/28 10:50:38;;;;;;;;;;;;;;;-143.57;41.37;50996.84;4972062;28;20448;-68
2022/10/28 10:53:05;;;;;;;;;;;;;;;-143.57;41.04;50973.00;4969681;28;20741;-69
2022/10/28 10:55:31;;;;;;;;;;;;;;;-143.57;39.41;50984.94;4970283;28;20610;-69
2022/10/28 10:57:59;;;;;;;;;;;;;;;-143.57;38.78;50988.91;4967810;28;19937;-69
2022/10/28 11:00:29;;;;;;;;;;;;;;;-143.57;38.03;50980.97;4972861;28;20017;-69
2022/10/28 11:02:56;;;;;;;;;;;;;;;-143.57;38.08;50992.88;4973351;28;19970;-67
2022/10/28 11:05:23;;;;;;;;;;;;;;;-143.57;38.45;50969.03;4970513;28;19934;-68
2022/10/28 11:08:03;;;;;;;;;;;;;;;-143.57;37.96;50988.91;4973279;28;19937;-68
2022/10/28 11:10:32;;;;;;;;;;;;;;;-143.57;38.82;51000.84;4969909;28;20020;-68
2022/10/28 11:13:01;;;;;;;;;;;;;;;-143.57;37.23;50992.88;4969966;28;20398;-67
2022/10/28 11:15:28;;;;;;;;;;;;;;;-143.57;38.26;50976.97;4953116;28;19968;-71
2022/10/28 11:18:15;;;;;;;;;;;;;;;-143.57;37.02;50976.97;4954924;28;20330;-68
2022/10/28 11:21:04;;;;;;;;;;;;;;;-143.57;37.57;50984.94;4969093;28;19934;-69
2022/10/28 11:23:34;;;;;;;;;;;;;;;-143.57;38.40;50973.00;4971562;28;20701;-68
2022/10/28 11:26:04;;;;;;;;;;;;;;;-143.57;37.57;51002.81;4966511;28;19930;-68
2022/10/28 11:28:34;;;;;;;;;;;;;;;-143.57;37.38;50978.97;4974154;28;20041;-68
2022/10/28 11:31:19;;;;;;;;;;;;;;;-143.57;36.45;50971.03;4970605;28;20089;-68
2022/10/28 11:33:55;;;;;;;;;;;;;;;-143.57;34.80;50992.88;4970483;28;20012;-68
2022/10/28 11:36:30;;;;;;;;;;;;;;;-143.57;34.65;50945.19;4969150;28;19961;-68
2022/10/28 11:38:57;;;;;;;;;;;;;;;-143.57;34.48;50996.84;4972026;28;19933;-68
2022/10/28 11:41:46;;;;;;;;;;;;;;;-143.57;34.36;50975.00;4969248;28;19965;-68
2022/10/28 11:44:33;;;;;;;;;;;;;;;-143.57;34.98;50986.91;4941427;28;20518;-67
2022/10/28 11:47:06;;;;;;;;;;;;;;;-143.57;35.03;50992.88;4968170;28;19936;-67
2022/10/28 11:49:42;;;;;;;;;;;;;;;-143.57;35.23;50988.91;4970261;28;19995;-68
2022/10/28 11:52:21;;;;;;;;;;;;;;;-143.57;34.54;50961.06;4972317;28;19929;-68
2022/10/28 11:55:00;;;;;;;;;;;;;;;-143.57;34.25;50971.03;4969983;28;20080;-68
2022/10/28 11:57:29;;;;;;;;;;;;;;;-143.57;33.49;50988.91;4965918;28;20031;-68
2022/10/28 12:00:13;;;;;;;;;;;;;;;-143.57;33.04;50976.97;4970338;28;19957;-68
2022/10/28 12:02:59;;;;;;;;;;;;;;;-143.57;33.07;50961.06;4970894;28;19926;-68
2022/10/28 12:05:42;;;;;;;;;;;;;;;-143.57;32.68;50992.88;4969525;28;19980;-68
2022/10/28 12:08:09;;;;;;;;;;;;;;;-143.57;32.08;50957.09;4973885;28;19965;-69
2022/10/28 12:10:47;;;;;;;;;;;;;;;-143.57;31.73;50965.06;4975689;28;20053;-68
2022/10/28 12:13:27;;;;;;;;;;;;;;;-143.57;31.35;50980.97;4954773;28;20029;-68
2022/10/28 12:15:58;;;;;;;;;;;;;;;-143.57;31.12;50965.06;4965952;28;19926;-67
2022/10/28 12:18:25;;;;;;;;;;;;;;;-143.57;30.24;50996.84;4951817;28;19934;-67
2022/10/28 12:20:51;;;;;;;;;;;;;;;-143.57;30.47;50992.88;4966984;28;19930;-67
2022/10/28 12:23:20;;;;;;;;;;;;;;;-143.57;29.48;50961.06;4978644;28;19940;-67
2022/10/28 12:25:50;;;;;;;;;;;;;;;-143.57;28.60;50941.19;4965842;28;19926;-68
2022/10/28 12:28:20;;;;;;;;;;;;;;;-143.57;28.24;50953.13;4972641;28;19973;-68
2022/10/28 12:30:48;;;;;;;;;;;;;;;-143.57;27.06;50945.19;4964315;28;19934;-69